Time;durP1;ratioP1;P1;durP2;ratioP2;P2;SDS_P1;SDS_P2;PMS_P1;PMS_P2;Temp;Humidity;BMP_temperature;BMP_pressure;BME280_temperature;BME280_humidity;BME280_pressure;Samples;Min_cycle;Max_cycle;Signal;HPM_P1;HPM_P2
2021/03/21 00:01:54;;;;;;;14.13;8.50;;;-2.40;94.20;;;;;;5071610;28;20028;-75
2021/03/21 00:04:19;;;;;;;16.98;7.50;;;-2.40;94.00;;;;;;5070112;28;20147;-75
2021/03/21 00:06:45;;;;;;;19.67;8.73;;;-2.40;94.00;;;;;;5071335;28;20056;-75
2021/03/21 00:09:12;;;;;;;15.27;9.60;;;-2.20;94.70;;;;;;5071254;28;20025;-75
2021/03/21 00:11:38;;;;;;;14.20;9.02;;;-2.20;94.40;;;;;;5071362;28;20095;-75
2021/03/21 00:14:06;;;;;;;23.20;9.13;;;-2.20;94.00;;;;;;5071355;28;20016;-75
2021/03/21 00:16:33;;;;;;;14.40;9.00;;;-2.10;94.80;;;;;;5071154;28;20032;-75
2021/03/21 00:18:59;;;;;;;16.67;8.50;;;-2.00;93.80;;;;;;5072223;28;20025;-75
2021/03/21 00:21:25;;;;;;;17.25;8.73;;;-2.20;93.20;;;;;;5074937;28;20095;-75
2021/03/21 00:23:51;;;;;;;15.15;8.45;;;-2.60;93.70;;;;;;5074914;28;20031;-75
2021/03/21 00:26:18;;;;;;;18.33;8.63;;;-2.80;94.30;;;;;;5073443;28;20028;-75
2021/03/21 00:28:44;;;;;;;15.15;7.55;;;-2.70;95.00;;;;;;5073308;28;20029;-75
2021/03/21 00:31:12;;;;;;;14.23;7.97;;;-2.60;95.00;;;;;;5073518;28;20027;-75
2021/03/21 00:33:39;;;;;;;16.38;9.10;;;-2.70;95.40;;;;;;5074591;28;20507;-75
2021/03/21 00:36:07;;;;;;;14.52;8.60;;;-2.80;96.00;;;;;;5074678;28;20100;-75
2021/03/21 00:38:37;;;;;;;15.38;8.55;;;-2.80;96.50;;;;;;5073517;28;20103;-75
2021/03/21 00:41:06;;;;;;;14.50;7.28;;;-2.80;96.10;;;;;;5074658;28;20021;-75
2021/03/21 00:43:32;;;;;;;15.45;8.52;;;-2.80;96.40;;;;;;5074408;28;20052;-75
2021/03/21 00:45:58;;;;;;;13.80;8.45;;;-2.90;97.50;;;;;;5056458;28;20458;-76
2021/03/21 00:48:44;;;;;;;20.45;8.77;;;-2.90;98.00;;;;;;5074343;28;20059;-75
2021/03/21 00:51:11;;;;;;;13.18;8.75;;;-2.80;97.50;;;;;;5074773;28;20027;-76
2021/03/21 00:53:37;;;;;;;15.73;8.80;;;-2.80;97.50;;;;;;5073074;28;20132;-75
2021/03/21 00:58:34;;;;;;;15.73;8.65;;;-2.80;97.40;;;;;;5034986;28;20042;-73
2021/03/21 01:01:01;;;;;;;19.20;8.10;;;-2.90;97.40;;;;;;5036810;28;20533;-73
2021/03/21 01:03:27;;;;;;;14.93;7.80;;;-2.90;97.50;;;;;;5052134;28;20112;-73
2021/03/21 01:06:02;;;;;;;14.35;8.07;;;-3.00;97.50;;;;;;5036459;28;20025;-73
2021/03/21 01:08:37;;;;;;;13.68;8.25;;;-3.00;98.00;;;;;;5034914;28;20543;-73
2021/03/21 01:11:12;;;;;;;15.13;8.85;;;-2.90;98.80;;;;;;5034567;28;20044;-73
2021/03/21 01:13:38;;;;;;;14.68;8.43;;;-2.80;98.20;;;;;;5036068;28;20523;-73
2021/03/21 01:16:07;;;;;;;21.17;8.25;;;-2.90;97.50;;;;;;5036181;28;20017;-73
2021/03/21 01:18:34;;;;;;;20.25;9.13;;;-2.90;98.00;;;;;;5036070;28;20032;-73
2021/03/21 01:21:03;;;;;;;13.52;8.20;;;-3.10;98.00;;;;;;5036002;28;20112;-73
2021/03/21 01:23:29;;;;;;;14.82;8.65;;;-3.10;98.50;;;;;;5035785;28;20021;-73
2021/03/21 01:25:55;;;;;;;18.30;8.23;;;-3.10;98.90;;;;;;5034214;28;20025;-73
2021/03/21 01:28:24;;;;;;;13.55;8.13;;;-3.10;99.00;;;;;;5034241;28;20022;-73
2021/03/21 01:30:52;;;;;;;13.27;8.82;;;-3.00;99.80;;;;;;5033505;28;20112;-72
2021/03/21 01:33:18;;;;;;;14.20;7.88;;;-3.00;98.70;;;;;;5035247;28;20032;-73
2021/03/21 01:35:44;;;;;;;13.90;8.10;;;-3.00;98.60;;;;;;5035062;28;20366;-72
2021/03/21 01:38:10;;;;;;;11.68;8.18;;;-3.00;98.40;;;;;;5018085;28;20116;-72
2021/03/21 01:40:37;;;;;;;14.77;7.63;;;-2.90;99.00;;;;;;5035113;28;20029;-72
2021/03/21 01:43:04;;;;;;;14.27;8.00;;;-2.90;98.40;;;;;;5035493;28;20519;-72
2021/03/21 01:45:45;;;;;;;14.82;8.02;;;-2.90;98.60;;;;;;5035042;28;20026;-73
2021/03/21 01:48:19;;;;;;;14.02;8.10;;;-3.00;99.60;;;;;;5035042;28;20105;-73
2021/03/21 01:51:11;;;;;;;13.88;8.60;;;-3.00;98.60;;;;;;5034029;28;20079;-73
2021/03/21 01:53:41;;;;;;;15.10;8.15;;;-3.00;98.90;;;;;;5033622;28;20048;-72
2021/03/21 01:56:10;;;;;;;12.68;8.20;;;-2.90;99.10;;;;;;5033472;28;20477;-71
2021/03/21 01:58:39;;;;;;;14.35;8.10;;;-2.90;98.10;;;;;;5034787;28;20048;-72
2021/03/21 02:01:21;;;;;;;14.02;7.30;;;-2.90;98.50;;;;;;5050378;28;20028;-72
2021/03/21 02:03:48;;;;;;;13.73;8.88;;;-2.80;98.00;;;;;;5017561;28;20025;-72
2021/03/21 02:06:34;;;;;;;11.75;7.68;;;-2.70;97.30;;;;;;5035432;28;20504;-72
2021/03/21 02:09:21;;;;;;;14.52;8.82;;;-2.80;97.10;;;;;;5034884;28;20022;-72
2021/03/21 02:12:09;;;;;;;13.43;7.80;;;-2.80;97.00;;;;;;5035293;28;20398;-72
2021/03/21 02:14:44;;;;;;;13.98;7.88;;;-3.00;97.00;;;;;;5033974;28;20436;-73
2021/03/21 02:17:16;;;;;;;12.90;7.90;;;-3.00;97.50;;;;;;5033994;28;20388;-72
2021/03/21 02:20:00;;;;;;;;;;;-2.90;96.50;;;;;;5035644;28;20021;-73
2021/03/21 02:22:32;;;;;;;13.52;8.18;;;-3.00;96.80;;;;;;5034985;28;19908;-72
2021/03/21 02:25:03;;;;;;;13.50;7.63;;;-2.80;97.60;;;;;;5035301;28;20044;-73
2021/03/21 02:27:55;;;;;;;12.85;8.07;;;-2.80;96.90;;;;;;5034815;28;20033;-72
2021/03/21 02:30:26;;;;;;;13.73;7.60;;;-2.90;96.40;;;;;;5035180;28;20029;-72
2021/03/21 02:33:25;;;;;;;13.43;7.22;;;-2.80;96.70;;;;;;5050406;28;20108;-72
2021/03/21 02:35:59;;;;;;;25.30;7.68;;;-3.00;96.20;;;;;;5015864;28;20481;-73
2021/03/21 02:38:43;;;;;;;13.98;7.35;;;-2.80;97.00;;;;;;5033690;28;20021;-73
2021/03/21 02:41:17;;;;;;;12.32;6.82;;;-2.70;96.00;;;;;;5033300;28;20048;-72
2021/03/21 02:43:54;;;;;;;15.00;7.65;;;-2.70;94.90;;;;;;5034588;28;20488;-72
2021/03/21 02:46:26;;;;;;;10.45;6.70;;;-2.60;94.70;;;;;;5035296;28;20089;-72
2021/03/21 02:49:21;;;;;;;15.27;6.63;;;-2.70;94.50;;;;;;5034737;28;20040;-73
2021/03/21 02:52:02;;;;;;;10.95;6.18;;;-2.60;94.90;;;;;;5032076;28;20033;-71
2021/03/21 02:54:36;;;;;;;14.93;6.88;;;-2.50;94.00;;;;;;5034718;28;20022;-72
2021/03/21 02:57:16;;;;;;;13.57;7.43;;;-2.40;94.10;;;;;;5034356;28;20061;-73
2021/03/21 02:59:50;;;;;;;9.27;6.63;;;-2.50;93.10;;;;;;5033448;28;20103;-72
2021/03/21 03:02:41;;;;;;;8.45;6.25;;;-2.40;93.30;;;;;;5034353;28;20128;-72
2021/03/21 03:05:12;;;;;;;11.13;6.32;;;-2.50;93.20;;;;;;5032833;28;20389;-73
2021/03/21 03:07:49;;;;;;;11.88;6.82;;;-2.40;93.20;;;;;;5033928;28;20034;-72
2021/03/21 03:10:22;;;;;;;11.13;6.25;;;-2.50;93.30;;;;;;5033993;28;20034;-72
2021/03/21 03:13:23;;;;;;;12.00;7.28;;;-2.40;93.20;;;;;;5033932;28;20387;-72
2021/03/21 03:15:51;;;;;;;8.63;6.00;;;-2.40;93.40;;;;;;5020305;28;20026;-73
2021/03/21 03:18:36;;;;;;;10.48;6.18;;;-2.40;93.50;;;;;;5033897;28;20508;-72
2021/03/21 03:21:16;;;;;;;13.15;6.00;;;-2.40;93.40;;;;;;5048970;28;20030;-72
2021/03/21 03:24:07;;;;;;;11.93;6.80;;;-2.40;93.10;;;;;;5049107;28;20026;-72
2021/03/21 03:26:57;;;;;;;10.48;6.22;;;-2.50;92.90;;;;;;5032265;28;20022;-73
2021/03/21 03:29:49;;;;;;;8.77;5.75;;;-2.70;93.20;;;;;;5032618;28;20051;-72
2021/03/21 03:32:15;;;;;;;10.18;5.88;;;-2.70;93.30;;;;;;5033222;28;20052;-72
2021/03/21 03:34:45;;;;;;;10.35;7.00;;;-2.80;93.40;;;;;;5033617;28;20033;-72
2021/03/21 03:37:12;;;;;;;12.57;6.30;;;-2.60;93.30;;;;;;5048919;28;20037;-72
2021/03/21 03:39:39;;;;;;;127.28;12.60;;;-2.60;92.80;;;;;;5032462;28;20025;-73
2021/03/21 03:42:35;;;;;;;13.05;6.03;;;-2.60;93.00;;;;;;5015772;28;20080;-73
2021/03/21 03:45:03;;;;;;;9.32;5.68;;;-2.60;92.80;;;;;;5033608;28;20447;-72
2021/03/21 03:47:46;;;;;;;9.13;5.70;;;-2.70;92.60;;;;;;5032276;28;20021;-72
2021/03/21 03:50:21;;;;;;;12.43;5.60;;;-2.70;92.90;;;;;;5033587;28;20026;-72
2021/03/21 03:53:08;;;;;;;15.25;6.60;;;-2.70;93.30;;;;;;5048902;28;20021;-72
2021/03/21 03:55:46;;;;;;;11.10;5.88;;;-2.70;93.10;;;;;;5037447;28;20385;-72
2021/03/21 03:58:34;;;;;;;10.60;5.95;;;-2.70;93.60;;;;;;5036014;28;20052;-72
2021/03/21 04:01:20;;;;;;;31.90;7.53;;;-2.60;93.80;;;;;;5037519;28;20507;-72
2021/03/21 04:03:55;;;;;;;7.88;5.55;;;-2.60;93.90;;;;;;5036923;28;20037;-72
2021/03/21 04:06:55;;;;;;;13.95;5.63;;;-2.60;93.80;;;;;;5020047;28;20107;-72
2021/03/21 04:09:32;;;;;;;11.32;6.25;;;-2.50;93.50;;;;;;5036217;28;20029;-72
2021/03/21 04:12:10;;;;;;;10.88;6.00;;;-2.50;92.90;;;;;;5037888;28;20024;-72
2021/03/21 04:15:16;;;;;;;9.68;5.22;;;-2.60;92.60;;;;;;5037661;28;20075;-72
2021/03/21 04:18:12;;;;;;;10.60;6.25;;;-2.40;92.30;;;;;;4995465;28;20052;-72
2021/03/21 04:20:45;;;;;;;11.30;5.63;;;-2.40;91.90;;;;;;5037495;28;20048;-72
2021/03/21 04:23:23;;;;;;;8.20;5.78;;;-2.50;91.50;;;;;;5036058;28;20083;-72
2021/03/21 04:26:14;;;;;;;8.02;5.47;;;-2.50;91.80;;;;;;5037364;28;20033;-72
2021/03/21 04:28:46;;;;;;;12.98;6.88;;;-2.50;91.50;;;;;;5032185;28;20389;-71
2021/03/21 04:31:14;;;;;;;10.23;5.70;;;-2.50;91.40;;;;;;5037106;28;20022;-72
2021/03/21 04:33:45;;;;;;;16.42;5.80;;;-2.50;91.20;;;;;;5036214;28;20454;-72
2021/03/21 04:36:32;;;;;;;8.77;6.10;;;-2.50;91.40;;;;;;5036997;28;20060;-72
2021/03/21 04:39:06;;;;;;;10.05;5.35;;;-2.60;91.50;;;;;;5019205;28;20064;-72
2021/03/21 04:41:44;;;;;;;8.88;5.80;;;-2.60;91.10;;;;;;5037320;28;20024;-72
2021/03/21 04:44:15;;;;;;;12.20;5.82;;;-2.60;91.60;;;;;;5037167;28;20378;-72
2021/03/21 04:46:46;;;;;;;10.00;6.18;;;-2.60;92.00;;;;;;5036906;28;20083;-72
2021/03/21 04:49:12;;;;;;;7.90;5.18;;;-2.50;91.90;;;;;;5036542;28;20108;-72
2021/03/21 04:51:44;;;;;;;11.48;6.22;;;-2.60;92.10;;;;;;5052059;28;20049;-72
2021/03/21 04:54:24;;;;;;;9.85;6.53;;;-2.60;92.30;;;;;;5035255;28;20096;-72
2021/03/21 04:56:58;;;;;;;12.73;5.88;;;-2.60;92.10;;;;;;5036374;28;20029;-72
2021/03/21 04:59:34;;;;;;;13.63;6.13;;;-2.60;92.60;;;;;;5036559;28;20468;-72
2021/03/21 05:02:41;;;;;;;32.67;6.97;;;-2.50;92.20;;;;;;5018449;28;20037;-72
2021/03/21 05:05:27;;;;;;;12.18;5.20;;;-2.50;91.70;;;;;;5012286;28;20069;-72
2021/03/21 05:07:58;;;;;;;8.80;5.55;;;-2.50;91.30;;;;;;5035439;28;20030;-72
2021/03/21 05:10:44;;;;;;;9.77;5.47;;;-2.40;91.20;;;;;;5019126;28;20029;-73
2021/03/21 05:13:19;;;;;;;27.38;6.47;;;-2.50;90.90;;;;;;5035168;28;20033;-72
2021/03/21 05:16:00;;;;;;;6.85;4.65;;;-2.40;90.70;;;;;;5036335;28;20028;-72
2021/03/21 05:18:53;;;;;;;14.90;5.97;;;-2.40;90.90;;;;;;5018628;28;20488;-72
2021/03/21 05:21:36;;;;;;;12.45;5.88;;;-2.40;90.60;;;;;;5036167;28;20025;-72
2021/03/21 05:24:23;;;;;;;17.33;5.45;;;-2.40;90.50;;;;;;5034980;28;20506;-72
2021/03/21 05:27:07;;;;;;;10.13;6.00;;;-2.40;90.50;;;;;;5036484;28;20051;-73
2021/03/21 05:29:50;;;;;;;7.65;5.75;;;-2.40;90.80;;;;;;5036165;28;20033;-72
2021/03/21 05:32:19;;;;;;;11.18;6.13;;;-2.40;90.70;;;;;;5036560;28;20039;-72
2021/03/21 05:34:47;;;;;;;11.38;5.53;;;-2.30;90.50;;;;;;5034815;28;20022;-72
2021/03/21 05:37:29;;;;;;;8.20;5.10;;;-2.30;90.50;;;;;;5035625;28;20025;-73
2021/03/21 05:39:58;;;;;;;11.98;6.00;;;-2.40;90.60;;;;;;5034940;28;20025;-72
2021/03/21 05:42:42;;;;;;;123.82;11.30;;;-2.40;90.90;;;;;;5036059;28;20083;-72
2021/03/21 05:45:17;;;;;;;11.48;5.88;;;-2.20;91.30;;;;;;5035022;28;20389;-72
2021/03/21 05:48:20;;;;;;;14.32;6.45;;;-2.20;91.30;;;;;;5035906;28;20026;-72
2021/03/21 05:51:23;;;;;;;23.92;7.45;;;-2.40;91.90;;;;;;5035035;28;20128;-71
2021/03/21 05:54:07;;;;;;;11.43;6.13;;;-2.40;91.90;;;;;;5051213;28;20060;-73
2021/03/21 05:56:39;;;;;;;10.10;5.78;;;-2.40;92.10;;;;;;5034208;28;20033;-73
2021/03/21 05:59:14;;;;;;;;;;;-2.40;91.80;;;;;;5036492;28;20024;-72
2021/03/21 06:02:10;;;;;;;11.82;5.13;;;-2.30;91.80;;;;;;5036254;28;19905;-72
2021/03/21 06:05:00;;;;;;;27.48;7.03;;;-2.20;92.00;;;;;;5035256;28;20029;-72
2021/03/21 06:07:37;;;;;;;13.77;5.85;;;-2.10;91.80;;;;;;5033976;28;20467;-72
2021/03/21 06:10:40;;;;;;;36.90;9.75;;;-1.90;91.70;;;;;;5034777;28;20029;-72
2021/03/21 06:13:18;;;;;;;25.83;5.68;;;-1.80;92.00;;;;;;5050294;28;20029;-72
2021/03/21 06:16:21;;;;;;;30.67;6.57;;;-1.70;92.00;;;;;;5033738;28;20131;-72
2021/03/21 06:19:14;;;;;;;28.30;7.20;;;-1.40;91.70;;;;;;5034848;28;20397;-72
2021/03/21 06:21:51;;;;;;;12.32;5.93;;;-1.30;90.80;;;;;;5033066;28;20026;-73
2021/03/21 06:24:55;;;;;;;78.80;8.75;;;-1.50;91.10;;;;;;5033552;28;20035;-72
2021/03/21 06:27:44;;;;;;;40.45;7.35;;;-1.20;91.50;;;;;;5034680;28;20025;-73
2021/03/21 06:30:37;;;;;;;19.85;6.53;;;-1.00;90.60;;;;;;5034905;28;20543;-73
2021/03/21 06:33:09;;;;;;;17.67;5.50;;;-1.20;90.60;;;;;;5033837;28;20022;-72
2021/03/21 06:35:41;;;;;;;;;;;-1.20;90.20;;;;;;5050351;28;20032;-72
2021/03/21 06:38:22;;;;;;;41.42;6.50;;;-1.10;90.50;;;;;;5050154;28;19905;-72
2021/03/21 06:40:54;;;;;;;14.63;8.07;;;-1.00;90.30;;;;;;5034618;28;20034;-73
2021/03/21 06:43:20;;;;;;;;;;;-1.30;90.00;;;;;;5033296;28;20022;-72
2021/03/21 06:45:57;;;;;;;9.00;5.88;;;-1.40;90.30;;;;;;5034345;28;19912;-73
2021/03/21 06:48:48;;;;;;;28.95;6.53;;;-1.50;90.70;;;;;;5049634;28;20068;-73
2021/03/21 06:51:40;;;;;;;49.67;8.05;;;-1.50;91.20;;;;;;5049793;28;20393;-73
2021/03/21 06:54:36;;;;;;;18.90;5.28;;;-1.30;90.90;;;;;;5034134;28;20279;-72
2021/03/21 06:57:23;;;;;;;10.60;6.30;;;-1.30;90.00;;;;;;5054139;23;20049;-73
2021/03/21 07:00:03;;;;;;;9.88;5.38;;;-1.40;90.20;;;;;;5072283;28;20037;-73
2021/03/21 07:03:22;;;;;;;36.03;6.72;;;-1.60;90.00;;;;;;5072110;28;20074;-73
2021/03/21 07:06:26;;;;;;;13.65;6.53;;;-1.60;90.30;;;;;;5072111;28;20407;-73
2021/03/21 07:09:09;;;;;;;8.90;5.28;;;-1.70;90.40;;;;;;5072023;28;20029;-73
2021/03/21 07:12:03;;;;;;;17.63;6.22;;;-1.60;90.70;;;;;;5071898;28;20025;-73
2021/03/21 07:15:17;;;;;;;32.05;6.15;;;-1.80;90.90;;;;;;5061364;28;20029;-73
2021/03/21 07:17:56;;;;;;;15.60;5.60;;;-1.70;91.30;;;;;;5009167;28;20033;-73
2021/03/21 07:20:34;;;;;;;12.77;6.03;;;-1.70;90.90;;;;;;5034286;28;20037;-73
2021/03/21 07:23:28;;;;;;;14.75;6.93;;;-1.50;90.90;;;;;;5051587;28;20029;-73
2021/03/21 07:26:21;;;;;;;16.73;7.75;;;-1.50;90.30;;;;;;5033853;28;20025;-73
2021/03/21 07:29:32;;;;;;;29.63;9.27;;;-1.60;90.10;;;;;;5053704;28;20029;-73
2021/03/21 07:32:00;;;;;;;18.23;6.60;;;-1.70;90.60;;;;;;5035976;28;20441;-73
2021/03/21 07:34:50;;;;;;;10.55;5.80;;;-1.60;90.30;;;;;;5055945;28;20028;-73
2021/03/21 07:37:51;;;;;;;12.90;6.78;;;-1.50;90.00;;;;;;5055715;28;20025;-73
2021/03/21 07:40:30;;;;;;;12.20;7.05;;;-1.50;89.80;;;;;;5055700;28;20380;-73
2021/03/21 07:43:10;;;;;;;10.85;6.03;;;-1.50;90.30;;;;;;5055584;28;20032;-73
2021/03/21 07:45:58;;;;;;;11.90;6.55;;;-1.50;90.60;;;;;;5055610;28;20516;-73
2021/03/21 07:48:38;;;;;;;16.73;7.57;;;-1.50;90.30;;;;;;5055326;28;20025;-73
2021/03/21 07:51:25;;;;;;;14.38;7.35;;;-1.60;90.30;;;;;;5055201;28;20024;-73
2021/03/21 07:54:28;;;;;;;14.10;7.57;;;-1.50;90.20;;;;;;5038073;28;20075;-74
2021/03/21 07:57:02;;;;;;;12.25;5.55;;;-1.30;90.10;;;;;;5055699;28;20029;-74
2021/03/21 07:59:34;;;;;;;13.68;5.53;;;-1.30;88.60;;;;;;5055632;28;20139;-74
2021/03/21 08:02:01;;;;;;;8.82;5.97;;;-1.30;88.60;;;;;;5055392;28;20071;-74
2021/03/21 08:04:47;;;;;;;32.58;6.65;;;-1.40;88.70;;;;;;5055586;28;20061;-74
2021/03/21 08:07:26;;;;;;;15.93;5.25;;;-1.20;88.70;;;;;;5055646;28;20534;-74
2021/03/21 08:09:52;;;;;;;25.70;6.53;;;-1.10;87.40;;;;;;5055622;28;20036;-74
2021/03/21 08:12:23;;;;;;;14.90;5.47;;;-1.10;87.70;;;;;;5055267;28;20446;-74
2021/03/21 08:15:05;;;;;;;;;;;-1.00;87.30;;;;;;5056030;28;20060;-74
2021/03/21 08:17:43;;;;;;;10.13;5.32;;;-0.90;86.20;;;;;;5055298;28;19944;-74
2021/03/21 08:20:22;;;;;;;13.82;5.75;;;-1.00;85.40;;;;;;5037630;28;20100;-74
2021/03/21 08:22:49;;;;;;;11.05;6.15;;;-1.00;85.10;;;;;;5055526;28;20052;-74
2021/03/21 08:25:27;;;;;;;14.57;4.72;;;-1.10;85.10;;;;;;5055196;28;20108;-74
2021/03/21 08:27:55;;;;;;;13.95;5.53;;;-1.10;84.50;;;;;;5037487;28;20032;-74
2021/03/21 08:30:28;;;;;;;18.00;5.68;;;-1.00;85.40;;;;;;5055059;28;20104;-74
2021/03/21 08:33:01;;;;;;;9.90;5.43;;;-1.00;85.20;;;;;;5056459;28;20021;-74
2021/03/21 08:35:30;;;;;;;12.45;5.18;;;-1.10;85.40;;;;;;5074976;28;20059;-74
2021/03/21 08:37:58;;;;;;;21.42;6.38;;;-1.10;86.00;;;;;;5074912;28;20052;-74
2021/03/21 08:40:40;;;;;;;10.20;5.47;;;-1.00;85.80;;;;;;5040329;28;20029;-74
2021/03/21 08:43:09;;;;;;;13.25;5.63;;;-0.90;84.60;;;;;;5075071;28;20048;-74
2021/03/21 08:45:44;;;;;;;17.98;5.78;;;-0.90;85.10;;;;;;5074666;28;20017;-74
2021/03/21 08:48:34;;;;;;;11.63;6.38;;;-0.90;84.80;;;;;;5075077;28;20044;-74
2021/03/21 08:51:22;;;;;;;23.35;6.82;;;-1.00;85.80;;;;;;5056815;28;20475;-74
2021/03/21 08:54:12;;;;;;;6.72;4.95;;;-0.80;86.50;;;;;;5074982;28;20020;-74
2021/03/21 08:56:57;;;;;;;11.40;5.95;;;-0.80;85.90;;;;;;5056666;28;20082;-74
2021/03/21 08:59:26;;;;;;;12.57;4.95;;;-0.80;86.30;;;;;;5056769;28;20033;-74
2021/03/21 09:02:09;;;;;;;11.80;6.68;;;-0.80;85.90;;;;;;5074426;28;20426;-74
2021/03/21 09:04:40;;;;;;;9.95;5.72;;;-0.80;86.70;;;;;;5056837;28;20108;-74
2021/03/21 09:07:25;;;;;;;11.18;6.22;;;-0.70;87.10;;;;;;5074763;28;20119;-74
2021/03/21 09:10:12;;;;;;;27.52;6.75;;;-0.70;87.00;;;;;;5074458;28;20395;-74
2021/03/21 09:12:45;;;;;;;9.10;5.32;;;-0.60;88.20;;;;;;5056252;28;20020;-74
2021/03/21 09:15:17;;;;;;;11.77;5.72;;;-0.70;86.90;;;;;;5039728;28;20463;-74
2021/03/21 09:17:47;;;;;;;20.60;5.72;;;-0.60;88.60;;;;;;5074258;28;20032;-74
2021/03/21 09:20:16;;;;;;;13.07;5.82;;;-0.60;87.90;;;;;;5074601;28;20025;-74
2021/03/21 09:22:45;;;;;;;16.58;6.30;;;-0.40;88.00;;;;;;5056388;28;20036;-74
2021/03/21 09:25:32;;;;;;;13.43;4.75;;;-0.30;88.40;;;;;;5056410;28;20031;-74
2021/03/21 09:27:59;;;;;;;13.18;4.90;;;-0.20;87.10;;;;;;5074009;28;20388;-74
2021/03/21 09:30:37;;;;;;;9.43;5.10;;;-0.20;87.40;;;;;;5073835;28;20028;-74
2021/03/21 09:33:13;;;;;;;15.65;4.75;;;-0.20;86.10;;;;;;5073959;28;20103;-74
2021/03/21 09:35:42;;;;;;;12.88;5.47;;;-0.20;86.80;;;;;;5073867;28;20448;-74
2021/03/21 09:38:13;;;;;;;11.63;5.18;;;0.00;86.60;;;;;;5055437;28;20094;-74
2021/03/21 09:40:46;;;;;;;17.70;5.80;;;0.00;85.50;;;;;;5055412;28;20498;-73
2021/03/21 09:43:19;;;;;;;11.45;5.20;;;0.00;86.30;;;;;;5073421;28;20021;-74
2021/03/21 09:45:47;;;;;;;9.70;4.43;;;0.00;86.20;;;;;;5073230;28;20086;-74
2021/03/21 09:48:39;;;;;;;13.60;4.85;;;-0.10;85.50;;;;;;5073383;28;20384;-74
2021/03/21 09:51:19;;;;;;;17.58;5.22;;;0.00;85.60;;;;;;5017706;28;20043;-74
2021/03/21 09:54:00;;;;;;;9.63;4.38;;;0.10;85.00;;;;;;5055008;28;20029;-74
2021/03/21 09:57:03;;;;;;;12.68;5.53;;;0.20;85.00;;;;;;5073141;28;20093;-74
2021/03/21 10:00:08;;;;;;;7.70;3.90;;;0.10;84.80;;;;;;5073014;28;20119;-74
2021/03/21 10:02:50;;;;;;;8.13;4.10;;;0.20;83.50;;;;;;4991266;28;20150;-74
2021/03/21 10:05:28;;;;;;;14.20;4.43;;;0.30;83.50;;;;;;4991474;28;20027;-74
2021/03/21 10:07:59;;;;;;;13.68;5.03;;;0.30;83.70;;;;;;5044978;28;20040;-74
2021/03/21 10:10:37;;;;;;;12.32;3.83;;;0.40;84.10;;;;;;5072838;28;20047;-74
2021/03/21 10:13:04;;;;;;;6.15;4.28;;;0.30;82.30;;;;;;5072631;28;20021;-74
2021/03/21 10:15:30;;;;;;;22.80;4.63;;;0.20;84.00;;;;;;5072785;28;20036;-74
2021/03/21 10:18:00;;;;;;;9.20;4.05;;;0.30;84.80;;;;;;5072747;28;20430;-74
2021/03/21 10:21:04;;;;;;;6.35;3.90;;;0.40;84.80;;;;;;5072716;28;20017;-74
2021/03/21 10:23:52;;;;;;;4.95;3.72;;;0.30;84.90;;;;;;5054768;28;20175;-74
2021/03/21 10:26:23;;;;;;;7.88;4.15;;;0.40;86.10;;;;;;5072624;28;20024;-74
2021/03/21 10:28:51;;;;;;;24.65;5.28;;;0.30;85.80;;;;;;5072422;28;20400;-74
2021/03/21 10:31:23;;;;;;;11.40;4.07;;;0.30;86.00;;;;;;5063618;28;20025;-74
2021/03/21 10:34:09;;;;;;;;;;;0.20;87.50;;;;;;5052929;28;20091;-74
2021/03/21 10:36:38;;;;;;;6.85;4.00;;;0.40;87.40;;;;;;5041354;28;19911;-74
2021/03/21 10:39:23;;;;;;;9.90;4.60;;;0.50;87.50;;;;;;5052332;28;20032;-74
2021/03/21 10:41:56;;;;;;;8.98;3.40;;;0.40;87.80;;;;;;5050454;28;20517;-74
2021/03/21 10:44:43;;;;;;;7.43;3.72;;;0.20;88.40;;;;;;5034410;28;20488;-73
2021/03/21 10:47:25;;;;;;;8.52;3.92;;;0.20;89.80;;;;;;4995189;28;20051;-74
2021/03/21 10:49:53;;;;;;;5.90;3.90;;;0.30;90.10;;;;;;5052065;28;20114;-74
2021/03/21 10:52:23;;;;;;;11.77;4.20;;;0.40;90.40;;;;;;5051765;28;20104;-74
2021/03/21 10:55:11;;;;;;;7.43;4.43;;;0.60;90.50;;;;;;5052291;28;20020;-74
2021/03/21 10:57:54;;;;;;;7.75;4.40;;;0.50;90.20;;;;;;5033909;28;20033;-74
2021/03/21 11:00:31;;;;;;;11.93;5.00;;;0.40;90.70;;;;;;5051958;28;20025;-73
2021/03/21 11:03:05;;;;;;;7.45;4.10;;;0.30;91.10;;;;;;5033120;28;20033;-73
2021/03/21 11:05:35;;;;;;;6.70;4.50;;;0.20;91.40;;;;;;5051847;28;20384;-74
2021/03/21 11:08:06;;;;;;;9.82;4.97;;;0.10;92.10;;;;;;5051788;28;20028;-74
2021/03/21 11:10:47;;;;;;;8.63;4.82;;;0.00;92.00;;;;;;5051751;28;20025;-73
2021/03/21 11:13:26;;;;;;;12.65;5.45;;;0.20;92.40;;;;;;5017370;28;20021;-74
2021/03/21 11:15:52;;;;;;;8.65;4.43;;;0.40;92.80;;;;;;5051905;28;20021;-74
2021/03/21 11:18:33;;;;;;;12.05;5.43;;;0.40;92.20;;;;;;5051427;28;20031;-73
2021/03/21 11:21:04;;;;;;;16.05;5.75;;;0.20;92.90;;;;;;5051520;28;20416;-74
2021/03/21 11:23:41;;;;;;;12.30;5.50;;;0.40;93.30;;;;;;5051724;28;20035;-73
2021/03/21 11:26:32;;;;;;;12.95;5.45;;;0.50;93.10;;;;;;5051795;28;20040;-74
2021/03/21 11:29:04;;;;;;;7.85;4.72;;;0.40;93.20;;;;;;5033792;28;20029;-73
2021/03/21 11:31:32;;;;;;;;;;;0.40;94.00;;;;;;5051827;28;20018;-74
2021/03/21 11:33:58;;;;;;;7.03;4.70;;;0.40;94.00;;;;;;5051447;28;19915;-73
2021/03/21 11:36:26;;;;;;;12.40;5.32;;;0.20;94.40;;;;;;5033686;28;20017;-74
2021/03/21 11:38:52;;;;;;;12.98;5.90;;;0.10;95.70;;;;;;5051477;28;20495;-74
2021/03/21 11:41:30;;;;;;;7.45;4.93;;;0.00;96.10;;;;;;5051233;28;20021;-73
2021/03/21 11:44:17;;;;;;;7.72;5.13;;;0.00;98.50;;;;;;5033518;28;20029;-73
2021/03/21 11:46:43;;;;;;;11.02;6.93;;;0.10;99.90;;;;;;5017187;28;20028;-73
2021/03/21 11:49:10;;;;;;;11.77;5.55;;;0.20;99.90;;;;;;5051356;28;20112;-73
2021/03/21 11:51:39;;;;;;;11.93;5.75;;;0.10;99.90;;;;;;5033322;28;20021;-73
2021/03/21 11:54:06;;;;;;;10.65;5.97;;;0.20;99.90;;;;;;5051392;28;20022;-74
2021/03/21 11:56:44;;;;;;;11.30;4.95;;;0.30;99.90;;;;;;5051462;28;20017;-74
2021/03/21 11:59:17;;;;;;;9.45;6.00;;;0.20;99.90;;;;;;5033585;28;20493;-73
2021/03/21 12:01:52;;;;;;;8.73;5.20;;;0.10;99.90;;;;;;5016745;28;20035;-73
2021/03/21 12:04:29;;;;;;;8.60;5.18;;;0.20;99.90;;;;;;5051399;28;20481;-73
2021/03/21 12:06:58;;;;;;;18.40;6.70;;;0.00;99.90;;;;;;5051179;28;20025;-73
2021/03/21 12:09:36;;;;;;;10.52;5.38;;;0.00;99.90;;;;;;5051031;28;20021;-74
2021/03/21 12:12:05;;;;;;;8.18;4.95;;;0.20;99.90;;;;;;5050898;28;20028;-73
2021/03/21 12:14:31;;;;;;;10.35;5.75;;;0.20;99.90;;;;;;5052815;28;20028;-73
2021/03/21 12:17:18;;;;;;;8.98;5.75;;;0.20;99.90;;;;;;5055038;28;20397;-73
2021/03/21 12:19:44;;;;;;;11.52;5.70;;;0.40;99.90;;;;;;5054682;28;20037;-74
2021/03/21 12:22:40;;;;;;;10.38;5.55;;;0.40;99.90;;;;;;5054590;28;20546;-73
2021/03/21 12:25:21;;;;;;;11.75;5.60;;;0.40;99.90;;;;;;5054771;28;20643;-73
2021/03/21 12:27:47;;;;;;;14.88;5.47;;;0.50;99.90;;;;;;5054803;28;20507;-74
2021/03/21 12:30:35;;;;;;;11.48;6.50;;;0.40;99.90;;;;;;5054372;28;20033;-73
2021/03/21 12:33:25;;;;;;;15.13;6.28;;;0.40;99.90;;;;;;5054346;28;20158;-73
2021/03/21 12:35:56;;;;;;;9.18;5.43;;;0.20;99.90;;;;;;5054666;28;20500;-73
2021/03/21 12:38:41;;;;;;;8.00;4.97;;;0.20;99.90;;;;;;5054483;28;20095;-73
2021/03/21 12:41:34;;;;;;;12.32;5.93;;;0.10;99.90;;;;;;5052958;28;20041;-73
2021/03/21 12:44:25;;;;;;;11.13;6.45;;;-0.10;99.90;;;;;;5054444;28;20025;-73
2021/03/21 12:47:29;;;;;;;14.25;5.80;;;0.00;99.90;;;;;;5054410;28;20029;-73
2021/03/21 12:49:55;;;;;;;10.68;5.80;;;0.30;99.90;;;;;;5054340;28;20126;-74
2021/03/21 12:52:31;;;;;;;10.10;5.40;;;0.30;99.90;;;;;;5052670;28;20492;-74
2021/03/21 12:54:57;;;;;;;9.20;5.70;;;0.30;99.90;;;;;;5053171;28;20029;-73
2021/03/21 12:57:23;;;;;;;13.75;6.20;;;0.20;99.90;;;;;;5054116;28;20040;-74
2021/03/21 13:02:26;;;;;;;8.23;5.75;;;0.20;99.90;;;;;;5072841;28;20056;-72
2021/03/21 13:04:53;;;;;;;13.50;6.65;;;0.40;99.90;;;;;;5075321;28;20023;-72
2021/03/21 13:07:20;;;;;;;12.18;6.63;;;0.60;99.90;;;;;;5075267;28;20104;-72
2021/03/21 13:09:47;;;;;;;11.82;4.97;;;0.60;99.90;;;;;;5057671;28;20098;-72
2021/03/21 13:12:14;;;;;;;11.90;6.55;;;0.70;99.90;;;;;;5075069;28;20074;-72
2021/03/21 13:14:40;;;;;;;8.25;4.90;;;0.90;99.90;;;;;;5057464;28;20020;-72
2021/03/21 13:17:06;;;;;;;8.32;5.68;;;0.90;99.90;;;;;;5074141;28;20098;-72
2021/03/21 13:19:32;;;;;;;8.77;5.60;;;0.90;99.90;;;;;;5075396;28;20564;-72
2021/03/21 13:21:58;;;;;;;13.82;6.78;;;0.70;99.90;;;;;;5056775;28;20024;-72
2021/03/21 13:24:24;;;;;;;12.07;5.95;;;0.70;99.90;;;;;;5074926;28;20542;-71
2021/03/21 13:26:51;;;;;;;9.18;5.20;;;0.90;99.90;;;;;;5073782;28;20016;-71
2021/03/21 13:29:17;;;;;;;14.80;5.63;;;0.60;99.90;;;;;;5057384;28;20388;-71
2021/03/21 13:31:43;;;;;;;7.70;4.97;;;0.60;99.90;;;;;;5056768;28;20028;-71
2021/03/21 13:34:09;;;;;;;9.40;5.65;;;0.70;99.90;;;;;;5057232;28;20032;-72
2021/03/21 13:36:35;;;;;;;8.77;5.18;;;0.90;99.90;;;;;;5074822;28;20028;-71
2021/03/21 13:39:00;;;;;;;11.68;6.38;;;0.80;99.90;;;;;;5040122;28;20046;-71
2021/03/21 13:41:26;;;;;;;11.70;5.53;;;0.80;99.90;;;;;;5074841;28;20035;-72